Time;durP1;ratioP1;P1;durP2;ratioP2;P2;SDS_P1;SDS_P2;PMS_P1;PMS_P2;Temp;Humidity;BMP_temperature;BMP_pressure;BME280_temperature;BME280_humidity;BME280_pressure;Samples;Min_cycle;Max_cycle;Signal;HPM_P1;HPM_P2
2022/09/29 00:00:27;;;;;;;4.22;0.68;;;17.60;77.90;;;;;;5099249;28;20031;-72
2022/09/29 00:02:53;;;;;;;1.13;0.50;;;17.60;78.00;;;;;;5113160;28;20031;-72
2022/09/29 00:05:19;;;;;;;3.78;0.65;;;17.60;78.00;;;;;;5114178;28;20026;-72
2022/09/29 00:07:44;;;;;;;2.97;0.98;;;17.60;78.00;;;;;;5112927;28;20426;-72
2022/09/29 00:10:10;;;;;;;1.98;0.50;;;17.60;78.00;;;;;;5114166;28;20020;-72
2022/09/29 00:12:36;;;;;;;2.55;0.57;;;17.60;78.00;;;;;;5095797;28;20357;-72
2022/09/29 00:15:01;;;;;;;7.13;0.80;;;17.60;78.00;;;;;;5114628;28;20103;-72
2022/09/29 00:17:27;;;;;;;6.43;0.50;;;17.60;78.00;;;;;;5113822;28;20028;-73
2022/09/29 00:19:53;;;;;;;9.13;0.63;;;17.60;78.00;;;;;;5113839;28;20399;-72
2022/09/29 00:22:18;;;;;;;3.78;0.70;;;17.60;79.10;;;;;;5113913;28;20024;-72
2022/09/29 00:24:46;;;;;;;1.42;0.47;;;17.60;78.10;;;;;;5112653;28;20024;-72
2022/09/29 00:27:14;;;;;;;2.55;0.50;;;17.60;78.10;;;;;;5112496;28;20024;-72
2022/09/29 00:29:39;;;;;;;1.65;0.38;;;17.60;78.10;;;;;;5113549;28;20019;-72
2022/09/29 00:32:05;;;;;;;2.33;0.73;;;17.60;78.10;;;;;;5113674;28;20023;-72
2022/09/29 00:34:30;;;;;;;2.47;0.57;;;17.60;78.10;;;;;;5113447;28;20547;-72
2022/09/29 00:36:56;;;;;;;2.40;0.60;;;17.60;78.10;;;;;;5113776;28;20024;-72
2022/09/29 00:39:22;;;;;;;2.00;0.60;;;17.60;78.20;;;;;;5094642;28;20062;-73
2022/09/29 00:41:47;;;;;;;4.30;0.63;;;17.60;78.10;;;;;;5073033;28;20029;-72
2022/09/29 00:44:13;;;;;;;1.02;0.45;;;17.60;78.20;;;;;;5072970;28;20031;-72
2022/09/29 00:46:56;;;;;;;3.55;0.50;;;17.60;78.10;;;;;;5072574;28;20370;-72
2022/09/29 00:49:24;;;;;;;2.33;0.50;;;17.60;78.10;;;;;;5071352;28;20047;-72
2022/09/29 00:51:58;;;;;;;2.40;0.40;;;17.60;78.10;;;;;;5072435;28;20044;-72
2022/09/29 00:54:27;;;;;;;0.50;0.50;;;17.60;78.20;;;;;;5071501;28;20503;-72
2022/09/29 00:56:52;;;;;;;3.08;0.50;;;17.60;78.20;;;;;;5071603;28;20473;-72
2022/09/29 00:59:27;;;;;;;1.67;0.52;;;17.60;78.20;;;;;;5071462;28;20052;-72
2022/09/29 01:01:53;;;;;;;1.85;0.50;;;17.60;78.20;;;;;;5106164;28;20027;-73
2022/09/29 01:04:19;;;;;;;0.73;0.50;;;17.60;78.20;;;;;;5111885;28;20537;-72
2022/09/29 01:06:50;;;;;;;1.55;0.60;;;17.60;78.20;;;;;;5094971;28;20115;-72
2022/09/29 01:09:21;;;;;;;6.80;0.80;;;17.60;78.20;;;;;;5111021;28;20030;-72
2022/09/29 01:11:46;;;;;;;0.55;0.30;;;17.60;78.20;;;;;;5093220;28;20396;-71
2022/09/29 01:14:12;;;;;;;1.42;0.50;;;17.60;78.20;;;;;;5112806;28;20094;-71
2022/09/29 01:16:38;;;;;;;1.75;0.45;;;17.60;78.20;;;;;;5112282;28;20023;-72
2022/09/29 01:19:33;;;;;;;3.15;0.40;;;17.60;78.20;;;;;;5110412;28;20034;-72
2022/09/29 01:22:21;;;;;;;2.22;0.40;;;17.60;78.00;;;;;;5030032;28;20121;-72
2022/09/29 01:25:20;;;;;;;1.20;0.43;;;17.60;78.10;;;;;;5016333;28;20038;-72
2022/09/29 01:28:07;;;;;;;2.13;0.60;;;17.60;78.10;;;;;;5016809;28;20035;-72
2022/09/29 01:30:51;;;;;;;1.10;0.43;;;17.60;78.10;;;;;;5029868;28;20038;-71
2022/09/29 01:33:23;;;;;;;1.58;0.52;;;17.60;78.10;;;;;;5030133;28;20129;-71
2022/09/29 01:36:10;;;;;;;2.70;0.60;;;17.60;78.20;;;;;;5013648;28;20037;-71
2022/09/29 01:39:03;;;;;;;3.17;0.50;;;17.60;78.10;;;;;;5024219;28;20046;-71
2022/09/29 01:41:29;;;;;;;2.35;0.47;;;17.60;78.10;;;;;;4990602;28;20038;-71
2022/09/29 01:44:26;;;;;;;2.88;0.77;;;17.60;78.20;;;;;;4990572;28;20033;-71
2022/09/29 01:47:15;;;;;;;4.45;0.75;;;17.60;78.20;;;;;;4965881;28;20089;-71
2022/09/29 01:49:44;;;;;;;3.10;0.40;;;17.60;78.20;;;;;;4975443;28;20074;-71
2022/09/29 01:52:14;;;;;;;5.70;0.50;;;17.60;78.20;;;;;;4974495;28;20051;-71
2022/09/29 01:54:45;;;;;;;2.75;0.80;;;17.60;78.10;;;;;;4974998;28;20035;-71
2022/09/29 01:57:26;;;;;;;1.08;0.38;;;17.60;78.20;;;;;;4974556;28;20588;-71
2022/09/29 02:00:01;;;;;;;2.75;0.73;;;17.60;78.10;;;;;;5055801;28;20067;-71
2022/09/29 02:03:15;;;;;;;2.55;0.68;;;17.60;78.10;;;;;;5082822;28;20353;-71
2022/09/29 02:05:45;;;;;;;2.17;0.75;;;17.60;78.10;;;;;;5033539;28;20044;-71
2022/09/29 02:08:33;;;;;;;2.58;1.05;;;17.60;78.20;;;;;;5033901;28;20107;-71
2022/09/29 02:11:04;;;;;;;1.35;0.60;;;17.60;78.10;;;;;;5019568;28;20225;-71
2022/09/29 02:13:37;;;;;;;1.83;0.68;;;17.60;78.20;;;;;;5017677;28;20025;-71
2022/09/29 02:16:02;;;;;;;1.95;0.65;;;17.60;78.20;;;;;;5017368;28;20507;-71
2022/09/29 02:18:31;;;;;;;2.22;0.45;;;17.60;78.20;;;;;;5033392;28;20109;-72
2022/09/29 02:20:57;;;;;;;2.47;0.50;;;17.60;78.20;;;;;;5017448;28;20478;-72
2022/09/29 02:23:22;;;;;;;1.25;0.60;;;17.60;78.20;;;;;;5033418;28;20075;-72
2022/09/29 02:25:48;;;;;;;1.17;0.30;;;17.60;78.20;;;;;;5033171;28;20034;-72
2022/09/29 02:28:13;;;;;;;2.17;0.90;;;17.60;78.20;;;;;;5016994;28;20042;-72
2022/09/29 02:30:39;;;;;;;2.30;0.57;;;17.60;78.20;;;;;;5016715;28;20032;-72
2022/09/29 02:33:05;;;;;;;1.80;0.57;;;17.60;78.30;;;;;;5016709;28;20060;-72
2022/09/29 02:35:45;;;;;;;2.03;0.40;;;17.60;78.30;;;;;;5017056;28;20549;-72
2022/09/29 02:38:16;;;;;;;1.98;0.50;;;17.60;78.20;;;;;;5017373;28;20552;-72
2022/09/29 02:40:57;;;;;;;1.70;0.55;;;17.60;78.20;;;;;;4982922;28;20030;-72
2022/09/29 02:43:28;;;;;;;2.38;0.43;;;17.60;78.20;;;;;;5057944;28;20496;-72
2022/09/29 02:46:11;;;;;;;2.00;0.43;;;17.60;78.20;;;;;;5074981;28;20035;-72
2022/09/29 02:49:04;;;;;;;1.08;0.40;;;17.60;78.20;;;;;;5075047;28;20017;-72
2022/09/29 02:51:40;;;;;;;2.28;0.47;;;17.60;78.20;;;;;;5074002;28;20090;-72
2022/09/29 02:54:48;;;;;;;2.58;0.73;;;17.60;78.30;;;;;;5057882;28;20078;-72
2022/09/29 02:58:09;;;;;;;1.20;0.40;;;17.60;78.30;;;;;;5073609;28;20041;-72
2022/09/29 03:00:35;;;;;;;3.40;0.55;;;17.60;78.30;;;;;;5083980;28;20089;-72
2022/09/29 03:03:00;;;;;;;0.70;0.38;;;17.60;78.30;;;;;;5097354;28;20039;-72
2022/09/29 03:05:26;;;;;;;1.98;0.40;;;17.60;78.20;;;;;;5114259;28;20023;-72
2022/09/29 03:07:51;;;;;;;1.52;0.47;;;17.60;78.20;;;;;;5115177;28;20019;-72
2022/09/29 03:10:17;;;;;;;1.50;0.32;;;17.60;78.30;;;;;;5115333;28;20022;-72
2022/09/29 03:12:43;;;;;;;0.82;0.35;;;17.60;78.30;;;;;;5114497;28;20024;-71
2022/09/29 03:15:11;;;;;;;4.50;0.68;;;17.60;78.20;;;;;;5097107;28;20027;-71
2022/09/29 03:17:37;;;;;;;0.88;0.50;;;17.60;78.20;;;;;;5097408;28;20028;-71
2022/09/29 03:20:03;;;;;;;1.33;0.50;;;17.60;78.30;;;;;;5113897;28;20376;-71
2022/09/29 03:22:28;;;;;;;0.30;0.30;;;17.60;78.30;;;;;;5115155;28;20019;-71
2022/09/29 03:24:54;;;;;;;1.05;0.32;;;17.60;78.30;;;;;;5113714;28;20499;-71
2022/09/29 03:27:20;;;;;;;1.10;0.50;;;17.60;78.30;;;;;;5114771;28;20377;-71
2022/09/29 03:29:45;;;;;;;2.00;0.70;;;17.60;78.30;;;;;;5114888;28;20031;-71
2022/09/29 03:32:11;;;;;;;2.85;0.50;;;17.60;78.30;;;;;;5114894;28;20106;-71
2022/09/29 03:34:36;;;;;;;0.85;0.60;;;17.60;78.30;;;;;;5114959;28;20034;-72
2022/09/29 03:37:02;;;;;;;2.20;0.40;;;17.60;78.30;;;;;;5114647;28;20028;-72
2022/09/29 03:39:28;;;;;;;1.95;0.70;;;17.60;78.40;;;;;;5076265;28;20020;-71
2022/09/29 03:41:54;;;;;;;1.10;0.50;;;17.60;78.30;;;;;;5072482;28;20024;-71
2022/09/29 03:44:19;;;;;;;0.55;0.45;;;17.60;78.30;;;;;;5074053;28;20028;-71
2022/09/29 03:46:46;;;;;;;2.15;0.55;;;17.60;78.40;;;;;;5074166;28;20366;-71
2022/09/29 03:49:15;;;;;;;2.65;0.50;;;17.60;78.30;;;;;;5073921;28;20017;-71
2022/09/29 03:51:41;;;;;;;2.42;0.40;;;17.50;78.20;;;;;;5073689;28;20040;-71
2022/09/29 03:54:06;;;;;;;2.10;0.60;;;17.50;78.30;;;;;;5074114;28;20028;-71
2022/09/29 03:56:32;;;;;;;1.08;0.50;;;17.60;78.30;;;;;;5073592;28;20489;-71
2022/09/29 03:58:58;;;;;;;0.80;0.50;;;17.50;78.20;;;;;;5072467;28;20445;-71
2022/09/29 04:01:24;;;;;;;1.30;0.35;;;17.50;78.20;;;;;;5100671;28;20102;-71
2022/09/29 04:03:49;;;;;;;1.63;0.45;;;17.60;78.30;;;;;;5114124;28;20098;-71
2022/09/29 04:06:15;;;;;;;1.95;0.30;;;17.60;78.30;;;;;;5114348;28;20020;-71
2022/09/29 04:08:41;;;;;;;1.02;0.30;;;17.50;78.20;;;;;;5114027;28;20091;-71
2022/09/29 04:11:06;;;;;;;1.88;0.68;;;17.50;78.20;;;;;;5112752;28;20030;-71
2022/09/29 04:13:32;;;;;;;2.47;0.30;;;17.50;78.20;;;;;;5114053;28;20046;-72
2022/09/29 04:16:02;;;;;;;1.95;0.47;;;17.50;78.30;;;;;;5113769;28;20402;-71
2022/09/29 04:18:28;;;;;;;1.40;0.45;;;17.50;78.30;;;;;;5112911;28;20024;-71
2022/09/29 04:20:56;;;;;;;2.00;0.40;;;17.50;78.30;;;;;;5113969;28;20080;-71
2022/09/29 04:23:22;;;;;;;2.22;0.30;;;17.50;78.20;;;;;;5113206;27;20028;-71
2022/09/29 04:25:48;;;;;;;2.10;0.50;;;17.50;78.30;;;;;;5112438;28;20024;-71
2022/09/29 04:28:13;;;;;;;0.82;0.20;;;17.50;78.40;;;;;;5113745;28;20023;-71
2022/09/29 04:30:39;;;;;;;1.33;0.50;;;17.50;78.40;;;;;;5113627;28;20019;-71
2022/09/29 04:33:05;;;;;;;0.65;0.22;;;17.50;78.40;;;;;;5113727;28;20372;-71
2022/09/29 04:35:30;;;;;;;1.05;0.30;;;17.50;78.30;;;;;;5113816;28;20026;-71
2022/09/29 04:37:57;;;;;;;0.60;0.40;;;17.50;78.40;;;;;;5113084;28;20038;-71
2022/09/29 04:40:23;;;;;;;0.95;0.40;;;17.50;78.30;;;;;;5059981;28;20522;-71
2022/09/29 04:42:49;;;;;;;5.72;0.57;;;17.50;78.40;;;;;;5073015;28;20028;-71
2022/09/29 04:45:14;;;;;;;3.20;0.60;;;17.50;78.40;;;;;;5072755;28;20024;-72
2022/09/29 04:47:40;;;;;;;1.40;0.50;;;17.50;78.40;;;;;;5072931;28;20028;-72
2022/09/29 04:50:06;;;;;;;1.27;0.40;;;17.50;78.50;;;;;;5071428;28;20020;-72
2022/09/29 04:52:32;;;;;;;0.85;0.30;;;17.50;78.40;;;;;;5071021;28;20060;-72
2022/09/29 04:54:58;;;;;;;0.85;0.32;;;17.50;78.40;;;;;;5072702;28;20017;-72
2022/09/29 04:57:23;;;;;;;2.55;0.43;;;17.50;78.40;;;;;;5072827;28;20024;-72
2022/09/29 04:59:50;;;;;;;1.85;1.02;;;17.50;78.40;;;;;;5072840;28;20028;-72
2022/09/29 05:02:19;;;;;;;0.50;0.30;;;17.50;78.50;;;;;;5113221;28;20103;-72
2022/09/29 05:04:46;;;;;;;0.57;0.30;;;17.50;78.40;;;;;;5113095;28;20479;-72
2022/09/29 05:07:12;;;;;;;2.08;0.35;;;17.50;78.50;;;;;;5094899;28;20059;-72
2022/09/29 05:09:38;;;;;;;1.70;0.47;;;17.50;78.40;;;;;;5113148;28;20023;-72
2022/09/29 05:12:03;;;;;;;1.60;0.32;;;17.50;78.40;;;;;;5112968;28;20024;-72
2022/09/29 05:14:29;;;;;;;1.52;0.40;;;17.50;78.40;;;;;;5112926;28;20395;-72
2022/09/29 05:16:55;;;;;;;1.25;0.50;;;17.50;78.40;;;;;;5113025;28;20036;-72
2022/09/29 05:19:21;;;;;;;2.03;0.50;;;17.50;78.50;;;;;;5111738;28;20023;-72
2022/09/29 05:21:46;;;;;;;1.10;0.38;;;17.50;78.40;;;;;;5112673;28;20039;-72
2022/09/29 05:24:12;;;;;;;2.22;0.60;;;17.50;78.40;;;;;;5111611;28;20019;-72
2022/09/29 05:26:38;;;;;;;1.45;0.43;;;17.50;78.50;;;;;;5111584;28;20023;-72
2022/09/29 05:29:03;;;;;;;0.77;0.30;;;17.50;78.50;;;;;;5111600;28;20092;-72
2022/09/29 05:31:29;;;;;;;2.70;0.30;;;17.50;78.50;;;;;;5111766;28;20061;-71
2022/09/29 05:33:55;;;;;;;3.53;0.35;;;17.50;78.50;;;;;;5111490;28;20022;-71
2022/09/29 05:36:21;;;;;;;1.67;0.47;;;17.50;78.50;;;;;;5112412;28;20119;-71
2022/09/29 05:38:47;;;;;;;0.52;0.30;;;17.50;78.50;;;;;;5102821;28;20512;-71
2022/09/29 05:41:15;;;;;;;0.47;0.28;;;17.50;78.50;;;;;;5072111;28;20090;-72
2022/09/29 05:43:40;;;;;;;4.38;0.85;;;17.50;78.50;;;;;;5070954;28;20040;-71
2022/09/29 05:46:07;;;;;;;1.90;0.50;;;17.50;78.50;;;;;;5072776;28;20060;-72
2022/09/29 05:48:33;;;;;;;1.00;0.50;;;17.40;78.40;;;;;;5091708;28;20103;-72
2022/09/29 05:50:59;;;;;;;1.08;0.32;;;17.50;79.50;;;;;;5092090;28;20119;-72
2022/09/29 05:53:25;;;;;;;1.60;0.40;;;17.50;78.50;;;;;;5103862;28;20016;-72
2022/09/29 05:55:51;;;;;;;3.03;0.55;;;17.50;78.50;;;;;;5098857;28;20407;-72
2022/09/29 05:58:17;;;;;;;0.70;0.40;;;17.50;78.60;;;;;;5090323;28;20020;-72
2022/09/29 06:00:42;;;;;;;2.42;0.43;;;17.50;78.60;;;;;;5109206;28;20080;-72
2022/09/29 06:03:08;;;;;;;0.32;0.20;;;17.50;78.60;;;;;;5110641;28;20080;-72
2022/09/29 06:05:37;;;;;;;0.30;0.30;;;17.50;78.60;;;;;;5110444;28;20032;-72
2022/09/29 06:08:02;;;;;;;1.33;0.35;;;17.50;78.60;;;;;;5103979;28;20016;-72
2022/09/29 06:10:28;;;;;;;1.58;0.50;;;17.50;78.60;;;;;;5089984;28;20016;-72
2022/09/29 06:12:55;;;;;;;0.60;0.30;;;17.50;78.60;;;;;;5090257;28;20023;-71
2022/09/29 06:15:21;;;;;;;1.00;0.50;;;17.50;78.70;;;;;;5091344;28;20103;-72
2022/09/29 06:17:47;;;;;;;2.97;0.50;;;17.50;78.50;;;;;;5090060;28;20196;-72
2022/09/29 06:20:13;;;;;;;1.05;0.40;;;17.50;78.40;;;;;;5073070;28;20385;-72
2022/09/29 06:22:38;;;;;;;1.67;0.50;;;17.40;78.30;;;;;;5091366;28;20050;-71
2022/09/29 06:25:04;;;;;;;3.58;0.40;;;17.40;78.10;;;;;;5098475;28;20524;-72
2022/09/29 06:27:30;;;;;;;1.60;0.30;;;17.40;78.00;;;;;;5111606;28;20030;-71
2022/09/29 06:29:56;;;;;;;0.93;0.40;;;17.40;77.90;;;;;;5111500;28;20032;-71
2022/09/29 06:32:21;;;;;;;2.53;0.32;;;17.40;77.70;;;;;;5111584;28;20069;-71
2022/09/29 06:37:34;;;;;;;2.78;0.35;;;17.40;77.50;;;;;;5111510;28;20026;-71
2022/09/29 06:40:00;;;;;;;2.45;0.47;;;17.40;77.50;;;;;;5078826;28;20044;-71
2022/09/29 06:42:26;;;;;;;1.13;0.43;;;17.40;77.40;;;;;;5089928;28;20051;-70
2022/09/29 06:44:52;;;;;;;1.65;0.35;;;17.40;77.40;;;;;;5091154;28;20067;-70
2022/09/29 06:47:17;;;;;;;0.30;0.30;;;17.40;77.30;;;;;;5092713;28;20027;-72
2022/09/29 06:49:43;;;;;;;1.20;0.30;;;17.40;77.30;;;;;;5094445;28;20024;-72
2022/09/29 06:52:09;;;;;;;29.38;4.05;;;17.40;77.20;;;;;;5093541;28;20093;-72
2022/09/29 06:54:34;;;;;;;23.13;3.58;;;17.40;77.30;;;;;;5093914;28;20055;-71
2022/09/29 06:57:00;;;;;;;14.05;2.42;;;17.40;77.40;;;;;;5093860;28;20024;-71
2022/09/29 06:59:25;;;;;;;21.75;3.33;;;17.40;77.50;;;;;;5103099;28;20020;-71
2022/09/29 07:01:51;;;;;;;32.22;3.10;;;17.30;77.50;;;;;;5112850;28;20027;-71
2022/09/29 07:04:17;;;;;;;20.30;2.45;;;17.30;77.40;;;;;;5108528;28;20559;-71
2022/09/29 07:06:44;;;;;;;21.77;3.13;;;17.40;77.50;;;;;;5087197;28;20020;-71
2022/09/29 07:09:14;;;;;;;18.63;2.20;;;17.30;77.50;;;;;;5103315;28;20020;-71
2022/09/29 07:11:40;;;;;;;13.63;2.47;;;17.30;77.50;;;;;;5095130;28;20468;-71
2022/09/29 07:14:06;;;;;;;25.83;3.38;;;17.40;77.60;;;;;;5110525;28;20023;-71
2022/09/29 07:16:32;;;;;;;19.27;2.53;;;17.30;77.50;;;;;;5115224;28;20024;-71
2022/09/29 07:18:57;;;;;;;17.08;3.15;;;17.40;77.50;;;;;;5115015;28;20023;-71
2022/09/29 07:21:23;;;;;;;13.18;3.10;;;17.40;77.50;;;;;;5108821;28;20020;-71
2022/09/29 07:23:48;;;;;;;19.55;3.13;;;17.40;77.50;;;;;;5094675;28;20064;-71
2022/09/29 07:26:15;;;;;;;17.88;2.95;;;17.30;77.50;;;;;;5094395;28;20058;-71
2022/09/29 07:28:40;;;;;;;18.70;3.53;;;17.30;77.50;;;;;;5093604;28;20024;-71
2022/09/29 07:31:08;;;;;;;13.77;3.40;;;17.30;77.50;;;;;;5093353;28;20024;-71
2022/09/29 07:33:33;;;;;;;15.73;3.72;;;17.30;77.50;;;;;;5093325;28;20107;-71
2022/09/29 07:35:59;;;;;;;11.27;2.55;;;17.30;77.40;;;;;;5094399;28;20174;-71
2022/09/29 07:38:28;;;;;;;17.00;4.15;;;17.30;77.40;;;;;;5097652;28;20504;-71
2022/09/29 07:40:58;;;;;;;13.38;3.40;;;17.30;77.50;;;;;;5094382;28;20107;-71
2022/09/29 07:43:24;;;;;;;12.65;2.58;;;17.30;77.40;;;;;;5076988;28;20031;-71
2022/09/29 07:45:50;;;;;;;14.23;2.65;;;17.30;77.40;;;;;;5093045;28;20028;-71
2022/09/29 07:48:16;;;;;;;11.82;2.92;;;17.30;77.40;;;;;;5093958;28;20048;-71
2022/09/29 07:50:42;;;;;;;12.82;2.67;;;17.30;77.40;;;;;;5075976;28;20480;-71
2022/09/29 07:53:08;;;;;;;11.35;2.70;;;17.30;77.40;;;;;;5094165;28;20413;-72
2022/09/29 07:55:33;;;;;;;10.10;2.22;;;17.30;77.40;;;;;;5094102;28;20024;-72
2022/09/29 07:58:00;;;;;;;11.18;3.00;;;17.30;77.40;;;;;;5093064;28;20028;-71
2022/09/29 08:00:26;;;;;;;10.45;2.53;;;17.30;77.40;;;;;;5093559;28;20024;-72
2022/09/29 08:02:52;;;;;;;19.23;2.92;;;17.30;77.50;;;;;;5092515;28;20081;-71
2022/09/29 08:05:18;;;;;;;10.90;2.90;;;17.30;77.40;;;;;;5089564;28;20021;-71
2022/09/29 08:07:43;;;;;;;10.38;2.70;;;17.30;77.40;;;;;;5073600;28;20020;-71
2022/09/29 08:10:09;;;;;;;13.02;2.50;;;17.30;77.40;;;;;;5072374;28;20485;-71
2022/09/29 08:12:35;;;;;;;12.75;2.75;;;17.20;77.40;;;;;;5084992;28;20478;-71
2022/09/29 08:15:00;;;;;;;12.52;3.38;;;17.30;77.40;;;;;;5113901;28;20395;-71
2022/09/29 08:17:26;;;;;;;8.75;2.05;;;17.20;77.30;;;;;;5113652;28;20034;-71
2022/09/29 08:19:52;;;;;;;11.13;2.30;;;17.20;77.30;;;;;;5114051;28;20020;-71
2022/09/29 08:22:17;;;;;;;9.30;2.60;;;17.30;77.30;;;;;;5113902;28;20467;-72
2022/09/29 08:24:43;;;;;;;12.10;2.80;;;17.20;77.20;;;;;;5113760;28;20028;-71
2022/09/29 08:27:09;;;;;;;11.50;2.42;;;17.30;77.30;;;;;;5113728;28;20024;-71
2022/09/29 08:29:34;;;;;;;12.38;2.58;;;17.20;77.30;;;;;;5113795;28;20474;-71
2022/09/29 08:32:00;;;;;;;11.75;2.50;;;17.20;77.20;;;;;;5113472;28;20475;-71
2022/09/29 08:34:26;;;;;;;11.25;2.67;;;17.20;77.20;;;;;;5113760;28;20471;-71
2022/09/29 08:36:52;;;;;;;12.23;2.83;;;17.20;77.20;;;;;;5113565;28;20038;-71
2022/09/29 08:39:19;;;;;;;10.88;2.75;;;17.20;77.20;;;;;;5112241;28;20024;-71
2022/09/29 08:41:53;;;;;;;11.68;2.45;;;17.20;77.20;;;;;;5113490;27;20030;-71
2022/09/29 08:44:39;;;;;;;9.68;2.17;;;17.20;77.20;;;;;;5113344;28;20065;-71
2022/09/29 08:47:34;;;;;;;8.82;2.22;;;17.20;77.10;;;;;;5079500;28;20055;-71
2022/09/29 08:50:04;;;;;;;9.00;2.85;;;17.20;77.10;;;;;;5098289;28;20035;-71
2022/09/29 08:52:34;;;;;;;11.38;2.42;;;17.20;77.20;;;;;;5111954;28;20487;-71
2022/09/29 08:55:09;;;;;;;10.18;2.35;;;17.20;77.20;;;;;;5095747;28;20016;-71
2022/09/29 08:57:35;;;;;;;10.35;2.13;;;17.20;77.20;;;;;;5112212;28;20498;-71
2022/09/29 09:00:01;;;;;;;9.10;1.90;;;17.10;78.20;;;;;;5111812;28;20020;-71
2022/09/29 09:02:50;;;;;;;5.43;2.20;;;17.20;77.20;;;;;;5112064;28;20027;-71
2022/09/29 09:05:50;;;;;;;5.07;2.00;;;17.20;77.30;;;;;;5104359;28;20028;-71
2022/09/29 09:08:57;;;;;;;8.63;1.98;;;17.20;77.20;;;;;;5072618;28;20082;-71
2022/09/29 09:11:34;;;;;;;11.43;2.30;;;17.10;77.20;;;;;;5071605;28;20060;-71
2022/09/29 09:14:14;;;;;;;7.60;2.22;;;17.10;77.20;;;;;;5107660;28;20055;-71
2022/09/29 09:16:54;;;;;;;7.72;2.08;;;17.10;77.20;;;;;;5095892;28;20473;-71
2022/09/29 09:19:40;;;;;;;7.85;1.92;;;17.20;77.30;;;;;;5111913;28;20057;-71
2022/09/29 09:22:22;;;;;;;8.63;1.85;;;17.20;77.30;;;;;;5096437;28;20022;-71
2022/09/29 09:24:54;;;;;;;9.55;2.17;;;17.10;77.20;;;;;;5112775;28;20051;-71
2022/09/29 09:27:22;;;;;;;8.38;2.65;;;17.20;77.30;;;;;;5111797;28;20024;-72
2022/09/29 09:29:48;;;;;;;5.13;2.67;;;17.10;77.20;;;;;;5111707;28;20041;-71
2022/09/29 09:32:34;;;;;;;7.65;1.85;;;17.10;77.20;;;;;;5094572;28;20016;-71
2022/09/29 09:35:04;;;;;;;6.25;1.98;;;17.10;77.30;;;;;;5112238;28;20088;-71
2022/09/29 09:37:38;;;;;;;7.38;1.73;;;17.10;77.20;;;;;;5095029;28;20020;-71
2022/09/29 09:40:10;;;;;;;5.78;2.08;;;17.10;77.20;;;;;;5111733;28;20032;-71
2022/09/29 09:42:41;;;;;;;7.13;2.13;;;17.10;77.20;;;;;;5112489;28;20039;-71
2022/09/29 09:45:16;;;;;;;7.57;1.90;;;17.10;77.20;;;;;;5094579;28;20118;-71
2022/09/29 09:47:48;;;;;;;4.60;1.80;;;17.10;77.20;;;;;;5095386;28;20403;-71
2022/09/29 09:50:18;;;;;;;7.57;1.83;;;17.10;77.20;;;;;;5095101;28;20445;-71
2022/09/29 09:52:45;;;;;;;5.40;1.70;;;17.10;77.20;;;;;;5111355;28;20411;-71
2022/09/29 09:55:16;;;;;;;7.93;1.92;;;17.10;77.20;;;;;;5111337;28;20104;-71
2022/09/29 09:58:06;;;;;;;4.93;1.80;;;17.10;77.20;;;;;;5094471;28;20369;-71
2022/09/29 10:00:33;;;;;;;8.10;1.92;;;17.10;77.20;;;;;;5112346;28;20023;-71
2022/09/29 10:03:01;;;;;;;5.65;1.80;;;17.10;77.20;;;;;;5112463;28;20026;-71
2022/09/29 10:05:41;;;;;;;6.82;1.92;;;17.10;77.20;;;;;;5083575;28;20453;-71
2022/09/29 10:08:30;;;;;;;6.43;1.80;;;17.10;77.20;;;;;;5070776;28;20016;-71
2022/09/29 10:10:56;;;;;;;8.48;2.03;;;17.10;77.20;;;;;;5070495;28;20038;-71
2022/09/29 10:13:27;;;;;;;6.68;1.83;;;17.10;77.20;;;;;;5096299;28;20024;-71
2022/09/29 10:16:05;;;;;;;7.00;1.58;;;17.10;77.20;;;;;;5112356;28;20416;-71
2022/09/29 10:18:42;;;;;;;8.35;2.00;;;17.10;77.20;;;;;;5112149;28;20050;-71
2022/09/29 10:21:29;;;;;;;5.00;1.40;;;17.10;77.20;;;;;;5111158;28;20024;-71
2022/09/29 10:23:56;;;;;;;7.20;1.90;;;17.10;77.20;;;;;;5116276;28;20029;-71
2022/09/29 10:26:26;;;;;;;7.60;2.35;;;17.10;77.20;;;;;;5114838;28;20042;-71
2022/09/29 10:29:15;;;;;;;4.47;1.60;;;17.10;77.20;;;;;;5081203;28;20023;-71
2022/09/29 10:31:40;;;;;;;5.90;2.55;;;17.10;77.30;;;;;;5114925;28;20020;-71
2022/09/29 10:34:09;;;;;;;7.35;2.00;;;17.00;77.20;;;;;;5116360;28;20145;-71
2022/09/29 10:36:50;;;;;;;7.10;2.05;;;17.00;77.20;;;;;;5115801;28;20042;-71
2022/09/29 10:39:40;;;;;;;2.95;1.50;;;17.00;77.20;;;;;;5098364;28;20027;-71
2022/09/29 10:42:15;;;;;;;6.28;1.92;;;17.10;77.20;;;;;;5114601;28;20028;-71
2022/09/29 10:44:41;;;;;;;7.03;1.48;;;17.00;77.10;;;;;;5114548;28;20031;-71
2022/09/29 10:47:10;;;;;;;7.93;1.98;;;17.00;77.20;;;;;;5115777;28;20028;-71
2022/09/29 10:49:36;;;;;;;6.18;2.20;;;17.00;77.30;;;;;;5097963;28;20016;-71
2022/09/29 10:52:15;;;;;;;4.35;1.50;;;17.00;77.20;;;;;;5115587;28;20046;-71
2022/09/29 10:54:58;;;;;;;6.40;1.73;;;17.00;77.20;;;;;;5098878;28;20035;-71
2022/09/29 10:57:27;;;;;;;6.35;1.90;;;17.00;77.20;;;;;;5114445;28;20072;-71
2022/09/29 10:59:53;;;;;;;4.30;1.33;;;17.00;77.20;;;;;;5114366;28;20024;-71
2022/09/29 11:02:27;;;;;;;4.13;1.70;;;17.00;77.20;;;;;;5097331;28;20065;-71
2022/09/29 11:04:53;;;;;;;7.80;2.13;;;17.00;77.20;;;;;;5114353;28;20108;-71
2022/09/29 11:07:18;;;;;;;5.28;1.83;;;17.00;77.20;;;;;;5073738;28;20456;-71
2022/09/29 11:09:44;;;;;;;6.22;1.50;;;17.00;77.30;;;;;;5074532;28;20078;-71
2022/09/29 11:12:25;;;;;;;6.20;1.63;;;17.00;77.20;;;;;;5079154;28;20441;-71
2022/09/29 11:14:50;;;;;;;3.15;1.10;;;17.00;77.20;;;;;;5115424;28;20038;-71
2022/09/29 11:17:38;;;;;;;5.75;1.20;;;17.00;77.30;;;;;;5114125;28;20031;-71
2022/09/29 11:20:10;;;;;;;6.35;1.63;;;17.00;77.30;;;;;;5115310;28;20085;-71
2022/09/29 11:23:06;;;;;;;3.30;1.48;;;17.00;77.30;;;;;;5097719;28;20020;-72
2022/09/29 11:25:49;;;;;;;5.43;1.55;;;17.00;77.30;;;;;;5113574;28;20146;-71
2022/09/29 11:28:39;;;;;;;6.93;1.58;;;17.00;77.30;;;;;;5097389;28;20057;-71
2022/09/29 11:31:42;;;;;;;4.82;1.60;;;17.00;77.30;;;;;;5115023;28;20024;-71
2022/09/29 11:34:29;;;;;;;5.78;1.77;;;17.00;77.30;;;;;;5114920;28;20031;-71
2022/09/29 11:37:21;;;;;;;6.53;1.45;;;17.00;77.30;;;;;;5114842;28;20471;-71
2022/09/29 11:39:56;;;;;;;4.45;1.80;;;17.00;77.30;;;;;;5114450;28;20019;-71
2022/09/29 11:42:27;;;;;;;6.78;1.33;;;17.00;77.40;;;;;;5114643;28;20544;-71
2022/09/29 11:45:02;;;;;;;4.15;1.65;;;17.00;77.40;;;;;;5115251;28;20103;-71
2022/09/29 11:47:44;;;;;;;3.58;1.40;;;17.00;77.30;;;;;;5114739;28;20024;-71
2022/09/29 11:50:12;;;;;;;4.30;1.60;;;17.00;77.30;;;;;;5114808;28;20046;-71
2022/09/29 11:53:06;;;;;;;7.28;1.65;;;17.00;77.30;;;;;;5114160;28;20094;-71
2022/09/29 11:56:02;;;;;;;4.35;1.40;;;17.00;77.30;;;;;;5114712;28;20102;-71
2022/09/29 11:58:45;;;;;;;7.63;1.60;;;17.00;77.30;;;;;;5114383;28;20031;-71
2022/09/29 12:01:35;;;;;;;4.32;1.48;;;17.00;77.40;;;;;;5113258;28;20052;-71
2022/09/29 12:04:39;;;;;;;5.05;1.85;;;17.00;77.50;;;;;;5114422;28;20073;-71
2022/09/29 12:07:12;;;;;;;3.55;1.15;;;17.00;77.40;;;;;;4994582;28;20042;-71
2022/09/29 12:10:06;;;;;;;3.13;1.00;;;17.00;77.50;;;;;;4991916;28;20050;-71
2022/09/29 12:12:55;;;;;;;5.53;1.15;;;17.00;77.40;;;;;;4988821;28;20025;-71
2022/09/29 12:15:27;;;;;;;3.03;1.38;;;17.00;77.40;;;;;;5016080;28;20525;-71
2022/09/29 12:18:06;;;;;;;3.95;1.55;;;17.00;77.50;;;;;;5015078;28;20044;-71
2022/09/29 12:20:36;;;;;;;4.15;2.08;;;16.90;77.40;;;;;;5015500;28;20068;-71
2022/09/29 12:23:04;;;;;;;4.65;1.52;;;17.00;77.50;;;;;;5014828;28;20532;-71
2022/09/29 12:25:32;;;;;;;7.32;1.40;;;17.00;77.40;;;;;;5014714;28;20491;-71
2022/09/29 12:28:11;;;;;;;5.03;1.38;;;17.00;77.50;;;;;;5014954;28;20025;-71
2022/09/29 12:30:53;;;;;;;3.97;1.65;;;17.00;77.40;;;;;;5014787;28;20037;-71
2022/09/29 12:33:33;;;;;;;5.40;1.17;;;17.00;77.40;;;;;;5015762;28;20025;-71
2022/09/29 12:39:19;;;;;;;2.33;1.42;;;17.00;77.40;;;;;;5031242;28;20041;-71
2022/09/29 12:41:55;;;;;;;3.95;1.17;;;17.00;77.50;;;;;;5014340;28;20036;-71
2022/09/29 12:44:30;;;;;;;3.72;1.05;;;17.00;77.50;;;;;;5080630;28;20031;-71
2022/09/29 12:47:07;;;;;;;4.20;1.50;;;17.00;77.40;;;;;;5112432;28;20491;-71
2022/09/29 12:49:43;;;;;;;3.33;1.10;;;17.00;77.50;;;;;;5095771;28;20479;-72
2022/09/29 12:52:21;;;;;;;4.53;1.67;;;17.00;77.40;;;;;;5112033;28;20066;-71
2022/09/29 12:54:56;;;;;;;3.78;1.08;;;17.00;77.50;;;;;;5095650;28;20077;-71
2022/09/29 12:57:39;;;;;;;3.97;1.20;;;17.00;77.50;;;;;;5095942;28;20103;-71
2022/09/29 13:00:10;;;;;;;3.58;1.10;;;17.00;77.50;;;;;;5112417;28;20102;-71
2022/09/29 13:02:56;;;;;;;4.05;1.30;;;17.00;77.50;;;;;;5112991;27;20024;-71
2022/09/29 13:05:40;;;;;;;5.32;1.02;;;17.00;77.50;;;;;;5102852;28;20028;-71
2022/09/29 13:08:30;;;;;;;3.67;1.05;;;17.00;77.40;;;;;;5072868;28;20028;-71
2022/09/29 13:11:02;;;;;;;2.10;1.00;;;17.00;77.40;;;;;;5072670;28;20028;-71
2022/09/29 13:13:52;;;;;;;2.05;0.90;;;17.00;77.50;;;;;;5098573;28;20053;-71